createdAt,value
2022-12-06T00:02:08.393Z,98.79
2022-12-06T00:07:16.102Z,99.14
2022-12-06T00:12:25.023Z,99.57
2022-12-06T00:17:32.901Z,99.88
2022-12-06T00:22:47.038Z,99.96
2022-12-06T00:27:55.154Z,99.99
2022-12-06T00:33:03.271Z,99.94
2022-12-06T00:38:10.557Z,99.86
2022-12-06T00:43:18.078Z,99.92
2022-12-06T00:48:26.021Z,99.92
2022-12-06T00:53:33.378Z,100.00
2022-12-06T00:58:41.121Z,99.91
2022-12-06T01:03:51.810Z,99.98
2022-12-06T01:09:29.541Z,100.00
2022-12-06T01:14:36.694Z,100.00
2022-12-06T01:19:44.932Z,100.00
2022-12-06T01:24:52.299Z,100.00
2022-12-06T01:29:59.817Z,100.00
2022-12-06T01:35:09.669Z,100.00
2022-12-06T01:40:17.656Z,100.00
2022-12-06T01:51:02.345Z,100.00
2022-12-06T01:56:11.263Z,100.00
2022-12-06T02:01:21.704Z,99.95
2022-12-06T02:06:30.175Z,99.58
2022-12-06T02:11:38.236Z,99.21
2022-12-06T02:17:03.719Z,99.05
2022-12-06T02:22:18.039Z,99.15
2022-12-06T02:27:51.000Z,99.33
2022-12-06T02:33:10.414Z,99.06
2022-12-06T02:38:35.788Z,98.77
2022-12-06T02:44:02.470Z,99.10
2022-12-06T02:51:23.401Z,99.07
2022-12-06T02:56:33.230Z,99.49
2022-12-06T03:01:52.119Z,99.23
2022-12-06T03:07:18.481Z,99.07
2022-12-06T03:12:34.820Z,99.08
2022-12-06T03:17:48.852Z,99.17
2022-12-06T03:23:00.981Z,99.28
2022-12-06T03:28:15.338Z,99.30
2022-12-06T03:33:33.711Z,99.24
2022-12-06T03:38:48.475Z,98.91
2022-12-06T03:43:56.832Z,98.87
2022-12-06T03:51:03.920Z,99.12
2022-12-06T03:56:11.619Z,99.27
2022-12-06T04:01:19.666Z,99.15
2022-12-06T04:06:27.047Z,99.23
2022-12-06T04:11:33.160Z,99.08
2022-12-06T04:17:01.212Z,99.17
2022-12-06T04:22:26.008Z,99.14
2022-12-06T04:27:51.390Z,99.48
2022-12-06T04:33:30.714Z,99.51
2022-12-06T04:38:43.629Z,99.62
2022-12-06T04:43:51.124Z,99.19
2022-12-06T04:51:01.520Z,98.88
2022-12-06T04:56:09.806Z,99.05
2022-12-06T05:01:17.121Z,98.99
2022-12-06T05:06:24.773Z,98.58
2022-12-06T05:11:32.181Z,98.67
2022-12-06T05:16:39.829Z,98.92
2022-12-06T05:21:47.485Z,98.81
2022-12-06T05:26:54.775Z,98.30
2022-12-06T05:32:01.983Z,98.65
2022-12-06T05:37:09.181Z,98.64
2022-12-06T05:42:27.214Z,98.31
2022-12-06T05:47:36.804Z,98.45
2022-12-06T05:52:44.110Z,98.98
2022-12-06T05:57:51.396Z,99.09
2022-12-06T06:02:58.488Z,99.13
2022-12-06T06:08:06.297Z,99.36
2022-12-06T06:13:13.801Z,99.94
2022-12-06T06:18:22.222Z,100.00
2022-12-06T06:23:30.255Z,100.00
2022-12-06T06:28:37.568Z,100.00
2022-12-06T06:33:44.576Z,100.00
2022-12-06T06:38:50.225Z,100.00
2022-12-06T06:43:57.329Z,100.00
2022-12-06T06:49:08.057Z,100.00
2022-12-06T06:54:20.109Z,99.93
2022-12-06T06:59:29.164Z,99.99
2022-12-06T07:04:36.457Z,100.00
2022-12-06T07:09:43.671Z,99.98
2022-12-06T07:14:51.071Z,99.95
2022-12-06T07:29:52.490Z,99.95
2022-12-06T07:34:59.406Z,99.95
2022-12-06T07:40:09.095Z,100.00
2022-12-06T07:45:17.611Z,100.00
2022-12-06T07:50:25.862Z,100.00
2022-12-06T07:55:33.316Z,99.77
2022-12-06T08:00:42.072Z,99.91
2022-12-06T08:05:57.129Z,100.00
2022-12-06T08:11:05.901Z,100.00
2022-12-06T08:16:15.539Z,99.99
2022-12-06T08:21:22.587Z,99.97
2022-12-06T08:26:29.832Z,99.97
2022-12-06T08:31:37.197Z,99.94
2022-12-06T08:36:44.932Z,100.00
2022-12-06T08:41:58.570Z,100.00
2022-12-06T08:47:08.506Z,99.94
2022-12-06T08:52:15.764Z,100.00
2022-12-06T08:57:23.075Z,99.95
2022-12-06T09:02:31.660Z,99.56
2022-12-06T09:07:49.671Z,99.58
2022-12-06T09:12:56.931Z,99.63
2022-12-06T09:18:03.832Z,99.56
2022-12-06T09:23:10.930Z,99.62
2022-12-06T09:28:18.596Z,99.36
2022-12-06T09:33:26.054Z,99.41
2022-12-06T09:38:43.267Z,99.38
2022-12-06T09:44:07.599Z,99.32
2022-12-06T09:49:30.863Z,98.56
2022-12-06T09:55:00.369Z,98.65
2022-12-06T10:00:15.410Z,99.29
2022-12-06T10:05:39.156Z,99.64
2022-12-06T10:11:05.355Z,99.93
2022-12-06T10:16:28.488Z,100.00
2022-12-06T10:22:01.433Z,100.00
2022-12-06T10:27:12.482Z,100.00
2022-12-06T10:32:28.239Z,100.00
2022-12-06T10:37:50.051Z,100.00
2022-12-06T10:43:02.711Z,100.00
2022-12-06T10:51:08.984Z,100.00
2022-12-06T10:56:21.367Z,100.00
2022-12-06T11:01:33.984Z,100.00
2022-12-06T11:06:51.468Z,100.00
2022-12-06T11:12:01.486Z,100.00
2022-12-06T11:17:16.372Z,100.00
2022-12-06T11:22:37.595Z,100.00
2022-12-06T11:27:53.906Z,100.00
2022-12-06T11:33:03.924Z,100.00
2022-12-06T11:38:13.748Z,100.00
2022-12-06T11:43:25.444Z,100.00
2022-12-06T11:52:29.290Z,100.00
2022-12-06T11:57:38.338Z,100.00
2022-12-06T12:02:44.116Z,100.00
2022-12-06T12:07:52.338Z,100.00
2022-12-06T12:13:15.410Z,100.00
2022-12-06T12:18:26.089Z,100.00
2022-12-06T12:23:33.086Z,100.00
2022-12-06T12:28:38.320Z,100.00
2022-12-06T12:33:42.099Z,100.00
2022-12-06T12:38:55.490Z,100.00
2022-12-06T12:44:35.841Z,100.00
2022-12-06T12:49:32.938Z,100.00
2022-12-06T12:54:38.007Z,100.00
2022-12-06T12:59:45.086Z,100.00
2022-12-06T13:05:05.095Z,100.00
2022-12-06T13:10:18.125Z,100.00
2022-12-06T13:15:30.170Z,100.00
2022-12-06T13:20:36.651Z,100.00
2022-12-06T13:25:43.085Z,100.00
2022-12-06T13:30:51.577Z,100.00
2022-12-06T13:36:02.719Z,100.00
2022-12-06T13:41:11.548Z,100.00
2022-12-06T13:46:31.153Z,100.00
2022-12-06T13:51:48.520Z,100.00
2022-12-06T13:56:58.664Z,99.75
2022-12-06T14:02:22.933Z,99.80
2022-12-06T14:07:33.522Z,98.78
2022-12-06T14:12:37.768Z,98.96
2022-12-06T14:23:24.176Z,98.85
2022-12-06T14:28:34.678Z,98.63
2022-12-06T14:33:40.041Z,98.88
2022-12-06T14:38:50.445Z,99.02
2022-12-06T14:43:54.998Z,99.08
2022-12-06T14:49:17.340Z,98.82
2022-12-06T14:54:33.776Z,98.64
2022-12-06T15:00:25.864Z,98.72
2022-12-06T15:05:01.669Z,98.70
2022-12-06T15:10:29.833Z,98.60
2022-12-06T15:15:37.197Z,98.65
2022-12-06T15:20:41.051Z,98.96
2022-12-06T15:25:44.715Z,98.67
2022-12-06T15:30:48.731Z,98.69
2022-12-06T15:35:53.430Z,98.67
2022-12-06T15:40:57.856Z,98.88
2022-12-06T15:46:04.177Z,99.04
2022-12-06T15:51:16.146Z,98.98
2022-12-06T15:56:25.221Z,99.10
2022-12-06T16:01:33.441Z,98.95
2022-12-06T16:06:37.464Z,99.00
2022-12-06T16:11:41.466Z,99.00
2022-12-06T16:16:45.362Z,99.44
2022-12-06T16:21:53.970Z,99.41
2022-12-06T16:26:57.505Z,99.16
2022-12-06T16:32:01.123Z,99.12
2022-12-06T16:37:06.280Z,99.08
2022-12-06T16:42:09.901Z,99.08
2022-12-06T16:50:55.452Z,98.59
2022-12-06T16:56:00.903Z,98.35
2022-12-06T17:01:22.529Z,98.38
2022-12-06T17:06:32.536Z,98.40
2022-12-06T17:11:57.850Z,98.63
2022-12-06T17:17:05.442Z,98.85
2022-12-06T17:22:16.462Z,98.87
2022-12-06T17:27:23.939Z,98.96
2022-12-06T17:32:31.765Z,98.84
2022-12-06T17:37:39.187Z,98.57
2022-12-06T17:43:01.832Z,98.27
2022-12-06T17:48:09.702Z,97.94
2022-12-06T17:53:17.150Z,97.89
2022-12-06T17:58:22.821Z,97.93
2022-12-06T18:03:30.392Z,98.28
2022-12-06T18:08:37.879Z,98.57
2022-12-06T18:13:45.664Z,98.72
2022-12-06T18:18:55.186Z,98.70
2022-12-06T18:24:20.832Z,98.62
2022-12-06T18:29:29.497Z,98.53
2022-12-06T18:34:35.554Z,98.49
2022-12-06T18:39:43.659Z,98.52
2022-12-06T18:44:56.547Z,98.68
2022-12-06T18:50:10.115Z,98.74
2022-12-06T18:55:17.855Z,99.15
2022-12-06T19:00:24.865Z,99.58
2022-12-06T19:06:00.689Z,99.81
2022-12-06T19:11:04.005Z,99.98
2022-12-06T19:16:12.325Z,100.00
2022-12-06T19:21:20.180Z,100.00
2022-12-06T19:26:28.789Z,100.00
2022-12-06T19:31:36.395Z,99.97
2022-12-06T19:36:43.697Z,99.77
2022-12-06T19:42:08.736Z,99.99
2022-12-06T19:47:15.930Z,99.96
2022-12-06T19:52:23.365Z,99.99
2022-12-06T19:57:34.323Z,100.00
2022-12-06T20:02:42.272Z,100.00
2022-12-06T20:07:50.184Z,100.00
2022-12-06T20:12:57.853Z,100.00
2022-12-06T20:18:05.883Z,100.00
2022-12-06T20:23:13.392Z,100.00
2022-12-06T20:28:21.501Z,100.00
2022-12-06T20:33:28.706Z,99.95
2022-12-06T20:38:37.931Z,99.90
2022-12-06T20:43:46.707Z,99.86
2022-12-06T20:48:54.582Z,99.88
2022-12-06T20:54:03.981Z,99.93
2022-12-06T20:59:12.097Z,99.85
2022-12-06T21:04:19.383Z,99.52
2022-12-06T21:09:27.192Z,99.54
2022-12-06T21:14:34.634Z,99.52
2022-12-06T21:19:43.035Z,99.59
2022-12-06T21:24:50.541Z,99.54
2022-12-06T21:29:58.017Z,99.48
2022-12-06T21:35:06.227Z,99.23
2022-12-06T21:40:15.357Z,99.00
2022-12-06T21:45:22.752Z,99.04
2022-12-06T21:50:30.177Z,98.44
2022-12-06T21:55:38.855Z,98.41
2022-12-06T22:00:46.514Z,98.20
2022-12-06T22:05:54.067Z,98.16
2022-12-06T22:10:59.629Z,97.72
2022-12-06T22:16:08.739Z,97.73
2022-12-06T22:21:17.923Z,97.72
2022-12-06T22:26:26.250Z,97.52
2022-12-06T22:31:35.342Z,97.39
2022-12-06T22:36:42.489Z,97.84
2022-12-06T22:41:49.865Z,98.00
2022-12-06T22:46:57.478Z,97.97
2022-12-06T22:52:05.221Z,98.09
2022-12-06T22:57:12.991Z,98.05
2022-12-06T23:02:20.628Z,98.19
2022-12-06T23:07:27.863Z,98.36
2022-12-06T23:12:33.450Z,98.49
2022-12-06T23:17:40.794Z,98.54
2022-12-06T23:22:48.006Z,98.49
2022-12-06T23:27:54.517Z,98.30
2022-12-06T23:33:02.195Z,98.33
2022-12-06T23:38:09.610Z,98.40
2022-12-06T23:43:18.435Z,98.44
2022-12-06T23:48:26.219Z,98.50
2022-12-06T23:53:35.334Z,98.72
2022-12-06T23:58:43.722Z,98.72
